sensor_id;sensor_type;location;lat;lon;timestamp;temperature;humidity
23079;DHT22;11707;50.830;4.364;2023-03-23T00:01:35;13.30;99.90
23079;DHT22;11707;50.830;4.364;2023-03-23T00:04:02;13.40;99.90
23079;DHT22;11707;50.830;4.364;2023-03-23T00:06:28;13.40;99.90
23079;DHT22;11707;50.830;4.364;2023-03-23T00:09:00;13.40;99.90
23079;DHT22;11707;50.830;4.364;2023-03-23T00:11:28;13.20;99.90
23079;DHT22;11707;50.830;4.364;2023-03-23T00:13:55;13.30;99.90
23079;DHT22;11707;50.830;4.364;2023-03-23T00:16:23;13.30;99.90
23079;DHT22;11707;50.830;4.364;2023-03-23T00:19:12;13.30;99.90
23079;DHT22;11707;50.830;4.364;2023-03-23T00:21:39;13.30;99.90
23079;DHT22;11707;50.830;4.364;2023-03-23T00:24:05;13.30;99.90
23079;DHT22;11707;50.830;4.364;2023-03-23T00:26:32;13.30;99.90
23079;DHT22;11707;50.830;4.364;2023-03-23T00:28:59;13.20;99.90
23079;DHT22;11707;50.830;4.364;2023-03-23T00:31:28;13.20;99.90
23079;DHT22;11707;50.830;4.364;2023-03-23T00:34:00;13.20;99.90
23079;DHT22;11707;50.830;4.364;2023-03-23T00:36:27;13.10;99.90
23079;DHT22;11707;50.830;4.364;2023-03-23T00:38:53;13.00;99.90
23079;DHT22;11707;50.830;4.364;2023-03-23T00:41:19;13.10;99.90
23079;DHT22;11707;50.830;4.364;2023-03-23T00:43:45;13.10;99.90
23079;DHT22;11707;50.830;4.364;2023-03-23T00:46:11;13.20;99.90
23079;DHT22;11707;50.830;4.364;2023-03-23T00:48:37;13.20;99.90
23079;DHT22;11707;50.830;4.364;2023-03-23T00:51:10;13.20;99.90
23079;DHT22;11707;50.830;4.364;2023-03-23T00:53:36;13.20;99.90
23079;DHT22;11707;50.830;4.364;2023-03-23T00:56:01;13.20;99.90
23079;DHT22;11707;50.830;4.364;2023-03-23T00:58:32;13.20;99.90
23079;DHT22;11707;50.830;4.364;2023-03-23T01:00:57;13.10;99.90
23079;DHT22;11707;50.830;4.364;2023-03-23T01:03:23;13.20;99.90
23079;DHT22;11707;50.830;4.364;2023-03-23T01:05:51;13.10;99.90
23079;DHT22;11707;50.830;4.364;2023-03-23T01:08:17;13.10;99.90
23079;DHT22;11707;50.830;4.364;2023-03-23T01:10:44;13.10;99.90
23079;DHT22;11707;50.830;4.364;2023-03-23T01:13:10;13.20;99.90
23079;DHT22;11707;50.830;4.364;2023-03-23T01:15:36;13.20;99.90
23079;DHT22;11707;50.830;4.364;2023-03-23T01:18:02;13.20;99.90
23079;DHT22;11707;50.830;4.364;2023-03-23T01:20:30;13.20;99.90
23079;DHT22;11707;50.830;4.364;2023-03-23T01:22:59;13.20;99.90
23079;DHT22;11707;50.830;4.364;2023-03-23T01:25:29;13.20;99.90
23079;DHT22;11707;50.830;4.364;2023-03-23T01:27:57;13.20;99.90
23079;DHT22;11707;50.830;4.364;2023-03-23T01:30:23;13.00;99.90
23079;DHT22;11707;50.830;4.364;2023-03-23T01:32:49;13.00;99.90
23079;DHT22;11707;50.830;4.364;2023-03-23T01:35:15;13.00;99.90
23079;DHT22;11707;50.830;4.364;2023-03-23T01:37:42;13.10;99.90
23079;DHT22;11707;50.830;4.364;2023-03-23T01:40:08;13.10;99.90
23079;DHT22;11707;50.830;4.364;2023-03-23T01:42:34;13.10;99.90
23079;DHT22;11707;50.830;4.364;2023-03-23T01:48:03;13.30;99.90
23079;DHT22;11707;50.830;4.364;2023-03-23T01:50:29;13.20;99.90
23079;DHT22;11707;50.830;4.364;2023-03-23T01:52:57;13.30;99.90
23079;DHT22;11707;50.830;4.364;2023-03-23T01:55:23;13.20;99.90
23079;DHT22;11707;50.830;4.364;2023-03-23T01:57:50;13.30;99.90
23079;DHT22;11707;50.830;4.364;2023-03-23T02:00:19;13.30;99.90
23079;DHT22;11707;50.830;4.364;2023-03-23T02:02:47;13.40;99.90
23079;DHT22;11707;50.830;4.364;2023-03-23T02:05:14;13.20;99.90
23079;DHT22;11707;50.830;4.364;2023-03-23T02:07:40;13.30;99.90
23079;DHT22;11707;50.830;4.364;2023-03-23T02:10:07;13.40;99.90
23079;DHT22;11707;50.830;4.364;2023-03-23T02:12:33;13.40;99.90
23079;DHT22;11707;50.830;4.364;2023-03-23T02:14:58;13.20;99.90
23079;DHT22;11707;50.830;4.364;2023-03-23T02:17:30;13.20;99.90
23079;DHT22;11707;50.830;4.364;2023-03-23T02:20:06;13.20;99.90
23079;DHT22;11707;50.830;4.364;2023-03-23T02:35:58;13.10;99.90
23079;DHT22;11707;50.830;4.364;2023-03-23T02:38:30;13.10;99.90
23079;DHT22;11707;50.830;4.364;2023-03-23T02:40:56;13.10;99.90
23079;DHT22;11707;50.830;4.364;2023-03-23T02:43:25;13.10;99.90
23079;DHT22;11707;50.830;4.364;2023-03-23T02:45:54;13.10;99.20
23079;DHT22;11707;50.830;4.364;2023-03-23T02:48:22;13.10;99.90
23079;DHT22;11707;50.830;4.364;2023-03-23T02:50:51;13.10;99.80
23079;DHT22;11707;50.830;4.364;2023-03-23T02:53:18;13.20;99.90
23079;DHT22;11707;50.830;4.364;2023-03-23T02:55:47;13.20;99.30
23079;DHT22;11707;50.830;4.364;2023-03-23T02:58:13;13.10;99.60
23079;DHT22;11707;50.830;4.364;2023-03-23T03:00:39;13.10;99.50
23079;DHT22;11707;50.830;4.364;2023-03-23T03:03:05;13.10;99.70
23079;DHT22;11707;50.830;4.364;2023-03-23T03:05:35;13.10;99.90
23079;DHT22;11707;50.830;4.364;2023-03-23T03:10:48;13.10;99.00
23079;DHT22;11707;50.830;4.364;2023-03-23T03:13:22;13.00;99.90
23079;DHT22;11707;50.830;4.364;2023-03-23T03:16:06;12.90;99.90
23079;DHT22;11707;50.830;4.364;2023-03-23T03:18:51;12.90;99.40
23079;DHT22;11707;50.830;4.364;2023-03-23T03:21:18;12.90;99.10
23079;DHT22;11707;50.830;4.364;2023-03-23T03:23:50;12.90;99.40
23079;DHT22;11707;50.830;4.364;2023-03-23T03:26:18;13.10;98.90
23079;DHT22;11707;50.830;4.364;2023-03-23T03:28:46;13.10;98.10
23079;DHT22;11707;50.830;4.364;2023-03-23T03:31:17;13.00;97.30
23079;DHT22;11707;50.830;4.364;2023-03-23T03:33:43;13.00;97.10
23079;DHT22;11707;50.830;4.364;2023-03-23T03:36:14;13.10;96.80
23079;DHT22;11707;50.830;4.364;2023-03-23T03:38:43;13.10;96.60
23079;DHT22;11707;50.830;4.364;2023-03-23T03:41:09;13.10;96.60
23079;DHT22;11707;50.830;4.364;2023-03-23T03:43:35;13.10;96.20
23079;DHT22;11707;50.830;4.364;2023-03-23T03:46:01;13.10;96.80
23079;DHT22;11707;50.830;4.364;2023-03-23T03:48:26;13.10;96.10
23079;DHT22;11707;50.830;4.364;2023-03-23T03:50:52;13.00;97.00
23079;DHT22;11707;50.830;4.364;2023-03-23T03:53:22;13.00;97.30
23079;DHT22;11707;50.830;4.364;2023-03-23T03:55:47;13.00;97.20
23079;DHT22;11707;50.830;4.364;2023-03-23T03:58:15;13.10;96.00
23079;DHT22;11707;50.830;4.364;2023-03-23T04:00:43;13.10;95.90
23079;DHT22;11707;50.830;4.364;2023-03-23T04:03:13;13.00;96.30
23079;DHT22;11707;50.830;4.364;2023-03-23T04:05:38;13.10;95.20
23079;DHT22;11707;50.830;4.364;2023-03-23T04:08:04;13.10;94.40
23079;DHT22;11707;50.830;4.364;2023-03-23T04:10:30;13.10;94.30
23079;DHT22;11707;50.830;4.364;2023-03-23T04:12:56;13.10;93.70
23079;DHT22;11707;50.830;4.364;2023-03-23T04:15:22;13.10;93.90
23079;DHT22;11707;50.830;4.364;2023-03-23T04:17:48;13.00;93.90
23079;DHT22;11707;50.830;4.364;2023-03-23T04:20:13;13.10;93.90
23079;DHT22;11707;50.830;4.364;2023-03-23T04:22:46;12.90;95.10
23079;DHT22;11707;50.830;4.364;2023-03-23T04:25:15;12.90;95.50
23079;DHT22;11707;50.830;4.364;2023-03-23T04:27:41;12.90;95.80
23079;DHT22;11707;50.830;4.364;2023-03-23T04:30:11;12.90;95.90
23079;DHT22;11707;50.830;4.364;2023-03-23T04:32:38;12.80;96.80
23079;DHT22;11707;50.830;4.364;2023-03-23T04:35:08;12.80;96.30
23079;DHT22;11707;50.830;4.364;2023-03-23T04:37:34;12.80;95.60
23079;DHT22;11707;50.830;4.364;2023-03-23T04:39:59;12.70;96.50
23079;DHT22;11707;50.830;4.364;2023-03-23T04:42:32;12.70;95.80
23079;DHT22;11707;50.830;4.364;2023-03-23T04:45:00;12.80;96.70
23079;DHT22;11707;50.830;4.364;2023-03-23T04:47:30;12.70;96.70
23079;DHT22;11707;50.830;4.364;2023-03-23T04:49:56;12.70;96.00
23079;DHT22;11707;50.830;4.364;2023-03-23T04:52:26;12.80;96.90
23079;DHT22;11707;50.830;4.364;2023-03-23T04:54:54;12.70;96.90
23079;DHT22;11707;50.830;4.364;2023-03-23T04:57:24;12.70;97.30
23079;DHT22;11707;50.830;4.364;2023-03-23T04:59:53;12.70;97.00
23079;DHT22;11707;50.830;4.364;2023-03-23T05:02:18;12.80;96.50
23079;DHT22;11707;50.830;4.364;2023-03-23T05:04:44;12.80;95.90
23079;DHT22;11707;50.830;4.364;2023-03-23T05:07:12;12.80;95.70
23079;DHT22;11707;50.830;4.364;2023-03-23T05:09:38;12.80;96.30
23079;DHT22;11707;50.830;4.364;2023-03-23T05:12:04;12.80;95.80
23079;DHT22;11707;50.830;4.364;2023-03-23T05:14:33;12.80;95.70
23079;DHT22;11707;50.830;4.364;2023-03-23T05:16:59;12.90;95.30
23079;DHT22;11707;50.830;4.364;2023-03-23T05:19:24;12.80;94.60
23079;DHT22;11707;50.830;4.364;2023-03-23T05:21:50;12.80;95.70
23079;DHT22;11707;50.830;4.364;2023-03-23T05:24:15;12.80;95.20
23079;DHT22;11707;50.830;4.364;2023-03-23T05:26:41;12.80;95.50
23079;DHT22;11707;50.830;4.364;2023-03-23T05:29:06;12.80;95.30
23079;DHT22;11707;50.830;4.364;2023-03-23T05:31:34;12.70;96.20
23079;DHT22;11707;50.830;4.364;2023-03-23T05:34:00;12.70;95.80
23079;DHT22;11707;50.830;4.364;2023-03-23T05:36:25;12.70;96.20
23079;DHT22;11707;50.830;4.364;2023-03-23T05:38:51;12.80;96.30
23079;DHT22;11707;50.830;4.364;2023-03-23T05:41:17;12.80;95.40
23079;DHT22;11707;50.830;4.364;2023-03-23T05:43:42;12.90;95.50
23079;DHT22;11707;50.830;4.364;2023-03-23T05:46:08;12.90;94.30
23079;DHT22;11707;50.830;4.364;2023-03-23T05:48:34;12.90;95.10
23079;DHT22;11707;50.830;4.364;2023-03-23T05:51:02;12.70;96.50
23079;DHT22;11707;50.830;4.364;2023-03-23T05:53:28;12.70;96.80
23079;DHT22;11707;50.830;4.364;2023-03-23T05:55:59;12.80;95.70
23079;DHT22;11707;50.830;4.364;2023-03-23T05:58:26;12.90;95.10
23079;DHT22;11707;50.830;4.364;2023-03-23T06:00:51;12.80;95.00
23079;DHT22;11707;50.830;4.364;2023-03-23T06:03:17;12.80;94.90
23079;DHT22;11707;50.830;4.364;2023-03-23T06:05:43;12.70;96.00
23079;DHT22;11707;50.830;4.364;2023-03-23T06:08:14;12.80;95.50
23079;DHT22;11707;50.830;4.364;2023-03-23T06:10:42;12.90;93.90
23079;DHT22;11707;50.830;4.364;2023-03-23T06:13:07;12.90;94.10
23079;DHT22;11707;50.830;4.364;2023-03-23T06:15:33;12.80;95.20
23079;DHT22;11707;50.830;4.364;2023-03-23T06:17:59;12.90;95.30
23079;DHT22;11707;50.830;4.364;2023-03-23T06:20:24;12.90;94.10
23079;DHT22;11707;50.830;4.364;2023-03-23T06:22:50;12.90;94.00
23079;DHT22;11707;50.830;4.364;2023-03-23T06:25:17;12.80;94.30
23079;DHT22;11707;50.830;4.364;2023-03-23T06:27:42;12.90;94.00
23079;DHT22;11707;50.830;4.364;2023-03-23T06:30:09;12.90;94.80
23079;DHT22;11707;50.830;4.364;2023-03-23T06:32:35;12.80;93.80
23079;DHT22;11707;50.830;4.364;2023-03-23T06:35:01;12.70;95.60
23079;DHT22;11707;50.830;4.364;2023-03-23T06:37:29;12.70;95.40
23079;DHT22;11707;50.830;4.364;2023-03-23T06:39:59;12.80;94.30
23079;DHT22;11707;50.830;4.364;2023-03-23T06:42:25;12.80;93.50
23079;DHT22;11707;50.830;4.364;2023-03-23T06:44:51;12.60;94.60
23079;DHT22;11707;50.830;4.364;2023-03-23T06:47:17;12.70;95.50
23079;DHT22;11707;50.830;4.364;2023-03-23T06:49:43;12.80;95.30
23079;DHT22;11707;50.830;4.364;2023-03-23T06:52:11;12.80;96.90
23079;DHT22;11707;50.830;4.364;2023-03-23T06:54:36;12.60;99.50
23079;DHT22;11707;50.830;4.364;2023-03-23T06:57:02;12.50;99.90
23079;DHT22;11707;50.830;4.364;2023-03-23T06:59:27;12.50;99.90
23079;DHT22;11707;50.830;4.364;2023-03-23T07:01:53;12.40;99.90
23079;DHT22;11707;50.830;4.364;2023-03-23T07:04:18;12.50;99.90
23079;DHT22;11707;50.830;4.364;2023-03-23T07:06:44;12.50;99.90
23079;DHT22;11707;50.830;4.364;2023-03-23T07:09:10;12.40;99.90
23079;DHT22;11707;50.830;4.364;2023-03-23T07:11:36;12.20;99.90
23079;DHT22;11707;50.830;4.364;2023-03-23T07:14:02;12.10;99.90
23079;DHT22;11707;50.830;4.364;2023-03-23T07:16:30;11.80;99.90
23079;DHT22;11707;50.830;4.364;2023-03-23T07:18:56;11.20;99.90
23079;DHT22;11707;50.830;4.364;2023-03-23T07:21:24;10.90;99.90
23079;DHT22;11707;50.830;4.364;2023-03-23T07:23:50;10.60;99.90
23079;DHT22;11707;50.830;4.364;2023-03-23T07:26:15;10.40;99.90
23079;DHT22;11707;50.830;4.364;2023-03-23T07:28:42;10.20;99.90
23079;DHT22;11707;50.830;4.364;2023-03-23T07:31:07;10.20;99.90
23079;DHT22;11707;50.830;4.364;2023-03-23T07:33:34;10.00;99.90
23079;DHT22;11707;50.830;4.364;2023-03-23T07:36:01;10.00;99.90
23079;DHT22;11707;50.830;4.364;2023-03-23T07:38:27;10.10;99.90
23079;DHT22;11707;50.830;4.364;2023-03-23T07:40:53;10.20;99.90
23079;DHT22;11707;50.830;4.364;2023-03-23T07:43:19;10.30;99.90
23079;DHT22;11707;50.830;4.364;2023-03-23T07:45:45;10.30;99.90
23079;DHT22;11707;50.830;4.364;2023-03-23T07:48:11;10.50;99.90
23079;DHT22;11707;50.830;4.364;2023-03-23T07:50:37;10.70;99.90
23079;DHT22;11707;50.830;4.364;2023-03-23T07:53:03;10.80;99.90
23079;DHT22;11707;50.830;4.364;2023-03-23T07:55:29;10.80;99.90
23079;DHT22;11707;50.830;4.364;2023-03-23T07:57:57;10.90;99.90
23079;DHT22;11707;50.830;4.364;2023-03-23T08:00:23;11.00;99.90
23079;DHT22;11707;50.830;4.364;2023-03-23T08:02:50;11.10;99.90
23079;DHT22;11707;50.830;4.364;2023-03-23T08:05:18;11.10;99.90
23079;DHT22;11707;50.830;4.364;2023-03-23T08:07:44;11.10;99.90
23079;DHT22;11707;50.830;4.364;2023-03-23T08:10:11;11.10;99.90
23079;DHT22;11707;50.830;4.364;2023-03-23T08:12:40;11.20;99.90
23079;DHT22;11707;50.830;4.364;2023-03-23T08:15:07;11.10;99.90
23079;DHT22;11707;50.830;4.364;2023-03-23T08:17:33;11.00;99.90
23079;DHT22;11707;50.830;4.364;2023-03-23T08:19:59;10.90;99.90
23079;DHT22;11707;50.830;4.364;2023-03-23T08:22:25;10.90;99.90
23079;DHT22;11707;50.830;4.364;2023-03-23T08:24:51;10.80;99.90
23079;DHT22;11707;50.830;4.364;2023-03-23T08:27:17;10.70;99.90
23079;DHT22;11707;50.830;4.364;2023-03-23T08:29:46;10.80;99.90
23079;DHT22;11707;50.830;4.364;2023-03-23T08:32:13;10.70;99.90
23079;DHT22;11707;50.830;4.364;2023-03-23T08:34:39;10.50;99.90
23079;DHT22;11707;50.830;4.364;2023-03-23T08:37:07;10.30;99.90
23079;DHT22;11707;50.830;4.364;2023-03-23T08:39:32;10.30;99.90
23079;DHT22;11707;50.830;4.364;2023-03-23T08:41:58;10.40;99.90
23079;DHT22;11707;50.830;4.364;2023-03-23T08:44:24;10.40;99.90
23079;DHT22;11707;50.830;4.364;2023-03-23T08:46:50;10.40;99.90
23079;DHT22;11707;50.830;4.364;2023-03-23T08:49:19;10.40;99.90
23079;DHT22;11707;50.830;4.364;2023-03-23T08:51:48;10.40;99.90
23079;DHT22;11707;50.830;4.364;2023-03-23T08:54:14;10.40;99.90
23079;DHT22;11707;50.830;4.364;2023-03-23T08:56:39;10.50;99.90
23079;DHT22;11707;50.830;4.364;2023-03-23T08:59:05;10.60;99.90
23079;DHT22;11707;50.830;4.364;2023-03-23T09:01:30;10.60;99.90
23079;DHT22;11707;50.830;4.364;2023-03-23T09:03:57;10.80;99.90
23079;DHT22;11707;50.830;4.364;2023-03-23T09:06:23;10.70;99.90
23079;DHT22;11707;50.830;4.364;2023-03-23T09:08:51;10.70;99.90
23079;DHT22;11707;50.830;4.364;2023-03-23T09:11:21;10.60;99.90
23079;DHT22;11707;50.830;4.364;2023-03-23T09:13:47;10.60;99.90
23079;DHT22;11707;50.830;4.364;2023-03-23T09:16:13;10.70;99.90
23079;DHT22;11707;50.830;4.364;2023-03-23T09:18:39;10.70;99.90
23079;DHT22;11707;50.830;4.364;2023-03-23T09:21:05;10.80;99.90
23079;DHT22;11707;50.830;4.364;2023-03-23T09:23:32;10.90;99.90
23079;DHT22;11707;50.830;4.364;2023-03-23T09:25:59;11.00;99.90
23079;DHT22;11707;50.830;4.364;2023-03-23T09:28:25;10.90;99.90
23079;DHT22;11707;50.830;4.364;2023-03-23T09:30:50;11.10;99.90
23079;DHT22;11707;50.830;4.364;2023-03-23T09:33:16;11.20;99.90
23079;DHT22;11707;50.830;4.364;2023-03-23T09:35:42;11.30;99.90
23079;DHT22;11707;50.830;4.364;2023-03-23T09:38:09;11.30;99.90
23079;DHT22;11707;50.830;4.364;2023-03-23T09:43:16;11.40;99.90
23079;DHT22;11707;50.830;4.364;2023-03-23T09:51:40;11.70;99.90
23079;DHT22;11707;50.830;4.364;2023-03-23T09:56:38;11.80;99.90
23079;DHT22;11707;50.830;4.364;2023-03-23T10:01:40;11.90;99.90
23079;DHT22;11707;50.830;4.364;2023-03-23T10:04:17;11.80;99.90
23079;DHT22;11707;50.830;4.364;2023-03-23T10:06:45;12.00;99.90
23079;DHT22;11707;50.830;4.364;2023-03-23T10:09:13;12.30;99.90
23079;DHT22;11707;50.830;4.364;2023-03-23T10:14:11;12.60;99.90
23079;DHT22;11707;50.830;4.364;2023-03-23T10:16:59;12.60;99.90
23079;DHT22;11707;50.830;4.364;2023-03-23T10:19:34;12.60;99.90
23079;DHT22;11707;50.830;4.364;2023-03-23T10:22:05;12.70;99.90
23079;DHT22;11707;50.830;4.364;2023-03-23T10:24:39;12.90;99.90
23079;DHT22;11707;50.830;4.364;2023-03-23T10:27:15;13.00;99.90
23079;DHT22;11707;50.830;4.364;2023-03-23T10:29:46;13.20;99.90
23079;DHT22;11707;50.830;4.364;2023-03-23T10:32:13;13.20;99.90
23079;DHT22;11707;50.830;4.364;2023-03-23T10:34:45;13.10;99.90
23079;DHT22;11707;50.830;4.364;2023-03-23T10:37:20;13.00;99.90
23079;DHT22;11707;50.830;4.364;2023-03-23T10:39:49;13.10;99.90
23079;DHT22;11707;50.830;4.364;2023-03-23T10:44:52;12.90;99.90
23079;DHT22;11707;50.830;4.364;2023-03-23T10:47:17;12.80;99.90
23079;DHT22;11707;50.830;4.364;2023-03-23T10:49:45;12.90;99.90
23079;DHT22;11707;50.830;4.364;2023-03-23T10:52:20;13.00;99.90
23079;DHT22;11707;50.830;4.364;2023-03-23T10:55:01;13.10;99.90
23079;DHT22;11707;50.830;4.364;2023-03-23T10:57:28;13.30;99.90
23079;DHT22;11707;50.830;4.364;2023-03-23T10:59:58;13.50;99.90
23079;DHT22;11707;50.830;4.364;2023-03-23T11:02:24;13.50;99.90
23079;DHT22;11707;50.830;4.364;2023-03-23T11:04:56;13.50;99.90
23079;DHT22;11707;50.830;4.364;2023-03-23T11:07:25;13.60;99.90
23079;DHT22;11707;50.830;4.364;2023-03-23T11:09:54;13.70;99.90
23079;DHT22;11707;50.830;4.364;2023-03-23T11:12:21;13.90;99.90
23079;DHT22;11707;50.830;4.364;2023-03-23T11:14:48;13.70;99.90
23079;DHT22;11707;50.830;4.364;2023-03-23T11:17:24;13.50;99.90
23079;DHT22;11707;50.830;4.364;2023-03-23T11:19:50;13.50;99.90
23079;DHT22;11707;50.830;4.364;2023-03-23T11:22:18;13.50;99.90
23079;DHT22;11707;50.830;4.364;2023-03-23T11:24:46;13.70;99.90
23079;DHT22;11707;50.830;4.364;2023-03-23T11:27:13;13.90;99.90
23079;DHT22;11707;50.830;4.364;2023-03-23T11:29:47;14.10;99.90
23079;DHT22;11707;50.830;4.364;2023-03-23T11:32:14;14.30;99.90
23079;DHT22;11707;50.830;4.364;2023-03-23T11:37:09;14.50;98.50
23079;DHT22;11707;50.830;4.364;2023-03-23T11:42:24;14.90;82.70
23079;DHT22;11707;50.830;4.364;2023-03-23T11:44:54;15.00;23.50
23079;DHT22;11707;50.830;4.364;2023-03-23T11:50:01;15.00;36.50
23079;DHT22;11707;50.830;4.364;2023-03-23T11:58:10;15.10;24.90
23079;DHT22;11707;50.830;4.364;2023-03-23T12:00:39;14.80;28.60
23079;DHT22;11707;50.830;4.364;2023-03-23T12:03:07;14.60;29.30
23079;DHT22;11707;50.830;4.364;2023-03-23T12:05:51;14.60;29.40
23079;DHT22;11707;50.830;4.364;2023-03-23T12:23:59;15.40;1.00
23079;DHT22;11707;50.830;4.364;2023-03-23T12:26:39;15.40;7.30
23079;DHT22;11707;50.830;4.364;2023-03-23T12:34:33;15.30;1.00
23079;DHT22;11707;50.830;4.364;2023-03-23T12:44:52;15.30;1.00
23079;DHT22;11707;50.830;4.364;2023-03-23T12:49:53;15.50;1.00
23079;DHT22;11707;50.830;4.364;2023-03-23T12:52:25;15.70;1.00
23079;DHT22;11707;50.830;4.364;2023-03-23T12:55:00;15.80;1.00
23079;DHT22;11707;50.830;4.364;2023-03-23T12:57:31;15.60;1.00
23079;DHT22;11707;50.830;4.364;2023-03-23T13:00:02;15.40;1.00
23079;DHT22;11707;50.830;4.364;2023-03-23T13:02:37;15.40;1.00
23079;DHT22;11707;50.830;4.364;2023-03-23T13:05:11;15.50;16.80
23079;DHT22;11707;50.830;4.364;2023-03-23T13:07:45;15.70;7.30
23079;DHT22;11707;50.830;4.364;2023-03-23T13:10:15;15.90;1.00
23079;DHT22;11707;50.830;4.364;2023-03-23T13:12:45;15.80;1.00
23079;DHT22;11707;50.830;4.364;2023-03-23T13:15:24;15.70;1.00
23079;DHT22;11707;50.830;4.364;2023-03-23T13:18:02;16.00;1.00
23079;DHT22;11707;50.830;4.364;2023-03-23T13:23:11;16.20;1.00
23079;DHT22;11707;50.830;4.364;2023-03-23T13:28:22;16.20;1.00
23079;DHT22;11707;50.830;4.364;2023-03-23T13:33:23;16.60;1.00
23079;DHT22;11707;50.830;4.364;2023-03-23T13:35:49;16.80;99.90
23079;DHT22;11707;50.830;4.364;2023-03-23T13:38:25;17.00;99.90
23079;DHT22;11707;50.830;4.364;2023-03-23T13:40:52;17.20;99.90
23079;DHT22;11707;50.830;4.364;2023-03-23T13:48:46;16.60;99.90
23079;DHT22;11707;50.830;4.364;2023-03-23T13:51:23;16.10;99.90
23079;DHT22;11707;50.830;4.364;2023-03-23T13:53:50;15.90;1.00
23079;DHT22;11707;50.830;4.364;2023-03-23T13:56:20;15.70;1.00
23079;DHT22;11707;50.830;4.364;2023-03-23T13:58:48;15.60;1.00
23079;DHT22;11707;50.830;4.364;2023-03-23T14:01:15;15.50;1.00
23079;DHT22;11707;50.830;4.364;2023-03-23T14:03:44;15.20;1.00
23079;DHT22;11707;50.830;4.364;2023-03-23T14:06:16;15.00;1.00
23079;DHT22;11707;50.830;4.364;2023-03-23T14:08:43;14.60;1.00
23079;DHT22;11707;50.830;4.364;2023-03-23T14:11:14;14.20;32.30
23079;DHT22;11707;50.830;4.364;2023-03-23T14:16:20;14.20;65.60
23079;DHT22;11707;50.830;4.364;2023-03-23T14:18:59;14.30;43.90
23079;DHT22;11707;50.830;4.364;2023-03-23T14:21:31;14.50;42.50
23079;DHT22;11707;50.830;4.364;2023-03-23T14:24:02;14.70;49.00
23079;DHT22;11707;50.830;4.364;2023-03-23T14:26:27;15.60;16.80
23079;DHT22;11707;50.830;4.364;2023-03-23T14:28:56;15.70;5.70
23079;DHT22;11707;50.830;4.364;2023-03-23T14:31:22;15.40;24.30
23079;DHT22;11707;50.830;4.364;2023-03-23T14:33:48;15.30;32.50
23079;DHT22;11707;50.830;4.364;2023-03-23T14:36:19;15.30;28.40
23079;DHT22;11707;50.830;4.364;2023-03-23T14:38:45;15.50;34.90
23079;DHT22;11707;50.830;4.364;2023-03-23T14:41:10;15.60;13.90
23079;DHT22;11707;50.830;4.364;2023-03-23T14:43:36;15.20;1.00
23079;DHT22;11707;50.830;4.364;2023-03-23T14:46:05;15.00;1.00
23079;DHT22;11707;50.830;4.364;2023-03-23T14:48:31;15.00;1.00
23079;DHT22;11707;50.830;4.364;2023-03-23T14:50:58;15.20;1.00
23079;DHT22;11707;50.830;4.364;2023-03-23T14:53:37;15.20;1.00
23079;DHT22;11707;50.830;4.364;2023-03-23T14:56:06;15.20;1.00
23079;DHT22;11707;50.830;4.364;2023-03-23T14:58:34;15.20;1.00
23079;DHT22;11707;50.830;4.364;2023-03-23T15:01:05;15.50;1.00
23079;DHT22;11707;50.830;4.364;2023-03-23T15:03:35;16.10;1.00
23079;DHT22;11707;50.830;4.364;2023-03-23T15:06:04;16.80;1.00
23079;DHT22;11707;50.830;4.364;2023-03-23T15:08:33;16.80;99.90
23079;DHT22;11707;50.830;4.364;2023-03-23T15:11:03;16.90;99.90
23079;DHT22;11707;50.830;4.364;2023-03-23T15:13:30;16.80;99.90
23079;DHT22;11707;50.830;4.364;2023-03-23T15:16:03;17.00;99.90
23079;DHT22;11707;50.830;4.364;2023-03-23T15:18:30;17.60;99.90
23079;DHT22;11707;50.830;4.364;2023-03-23T15:20:56;17.80;99.90
23079;DHT22;11707;50.830;4.364;2023-03-23T15:23:26;17.50;99.90
23079;DHT22;11707;50.830;4.364;2023-03-23T15:25:52;17.20;99.90
23079;DHT22;11707;50.830;4.364;2023-03-23T15:28:22;16.90;99.90
23079;DHT22;11707;50.830;4.364;2023-03-23T15:30:54;16.90;99.90
23079;DHT22;11707;50.830;4.364;2023-03-23T15:33:20;17.00;99.90
23079;DHT22;11707;50.830;4.364;2023-03-23T15:35:52;16.80;99.90
23079;DHT22;11707;50.830;4.364;2023-03-23T15:38:22;16.60;99.90
23079;DHT22;11707;50.830;4.364;2023-03-23T15:40:49;16.30;1.00
23079;DHT22;11707;50.830;4.364;2023-03-23T15:43:23;16.00;1.00
23079;DHT22;11707;50.830;4.364;2023-03-23T15:45:56;15.60;1.00
23079;DHT22;11707;50.830;4.364;2023-03-23T15:48:26;15.40;1.00
23079;DHT22;11707;50.830;4.364;2023-03-23T15:50:53;15.20;2.70
23079;DHT22;11707;50.830;4.364;2023-03-23T15:53:31;15.10;13.80
23079;DHT22;11707;50.830;4.364;2023-03-23T15:55:58;15.20;11.50
23079;DHT22;11707;50.830;4.364;2023-03-23T15:58:24;15.40;1.00
23079;DHT22;11707;50.830;4.364;2023-03-23T16:00:50;15.60;1.00
23079;DHT22;11707;50.830;4.364;2023-03-23T16:03:18;15.60;1.00
23079;DHT22;11707;50.830;4.364;2023-03-23T16:05:45;15.80;1.00
23079;DHT22;11707;50.830;4.364;2023-03-23T16:08:10;15.90;1.00
23079;DHT22;11707;50.830;4.364;2023-03-23T16:10:36;16.00;1.00
23079;DHT22;11707;50.830;4.364;2023-03-23T16:13:04;15.80;1.00
23079;DHT22;11707;50.830;4.364;2023-03-23T16:15:30;15.60;1.00
23079;DHT22;11707;50.830;4.364;2023-03-23T16:17:56;15.60;1.00
23079;DHT22;11707;50.830;4.364;2023-03-23T16:20:22;15.70;1.00
23079;DHT22;11707;50.830;4.364;2023-03-23T16:22:50;15.90;1.00
23079;DHT22;11707;50.830;4.364;2023-03-23T16:25:16;16.00;99.90
23079;DHT22;11707;50.830;4.364;2023-03-23T16:27:43;16.00;1.00
23079;DHT22;11707;50.830;4.364;2023-03-23T16:30:16;16.00;1.00
23079;DHT22;11707;50.830;4.364;2023-03-23T16:32:42;16.10;1.00
23079;DHT22;11707;50.830;4.364;2023-03-23T16:35:08;15.70;1.00
23079;DHT22;11707;50.830;4.364;2023-03-23T16:37:34;15.40;1.00
23079;DHT22;11707;50.830;4.364;2023-03-23T16:40:01;15.50;1.00
23079;DHT22;11707;50.830;4.364;2023-03-23T16:42:27;15.50;1.00
23079;DHT22;11707;50.830;4.364;2023-03-23T16:44:55;15.50;1.00
23079;DHT22;11707;50.830;4.364;2023-03-23T16:47:21;15.40;1.00
23079;DHT22;11707;50.830;4.364;2023-03-23T16:49:52;15.40;1.00
23079;DHT22;11707;50.830;4.364;2023-03-23T16:52:18;15.30;1.00
23079;DHT22;11707;50.830;4.364;2023-03-23T16:54:43;15.40;1.00
23079;DHT22;11707;50.830;4.364;2023-03-23T16:57:09;15.40;1.00
23079;DHT22;11707;50.830;4.364;2023-03-23T16:59:35;15.50;1.00
23079;DHT22;11707;50.830;4.364;2023-03-23T17:02:00;15.20;1.00
23079;DHT22;11707;50.830;4.364;2023-03-23T17:04:28;15.20;1.00
23079;DHT22;11707;50.830;4.364;2023-03-23T17:06:54;15.30;1.00
23079;DHT22;11707;50.830;4.364;2023-03-23T17:09:20;15.00;1.00
23079;DHT22;11707;50.830;4.364;2023-03-23T17:11:45;15.10;1.00
23079;DHT22;11707;50.830;4.364;2023-03-23T17:14:11;15.10;1.00
23079;DHT22;11707;50.830;4.364;2023-03-23T17:16:39;15.00;1.00
23079;DHT22;11707;50.830;4.364;2023-03-23T17:19:04;14.90;1.00